sensor_id;sensor_type;location;lat;lon;timestamp;pressure;altitude;pressure_sealevel;temperature;humidity
40013;BME280;37387;42.672;23.334;2022-07-23T00:02:28;946.9;;;21.6;63.2
40013;BME280;37387;42.672;23.334;2022-07-23T00:03:28;946.9;;;21.5;63.4
40013;BME280;37387;42.672;23.334;2022-07-23T00:09:29;946.9;;;21.6;61.7
40013;BME280;37387;42.672;23.334;2022-07-23T00:10:28;946.9;;;21.5;60.6
40013;BME280;37387;42.672;23.334;2022-07-23T00:13:28;946.9;;;21.6;61.0
40013;BME280;37387;42.672;23.334;2022-07-23T00:17:28;947.0;;;21.5;62.6
40013;BME280;37387;42.672;23.334;2022-07-23T00:19:28;947.0;;;21.3;64.4
40013;BME280;37387;42.672;23.334;2022-07-23T00:20:28;946.9;;;21.1;65.3
40013;BME280;37387;42.672;23.334;2022-07-23T00:21:28;947.0;;;21.0;66.2
40013;BME280;37387;42.672;23.334;2022-07-23T00:31:29;947.0;;;20.9;67.0
40013;BME280;37387;42.672;23.334;2022-07-23T00:39:28;947.1;;;20.8;67.3
40013;BME280;37387;42.672;23.334;2022-07-23T00:43:28;947.0;;;20.7;67.5
40013;BME280;37387;42.672;23.334;2022-07-23T00:47:29;947.0;;;20.6;67.8
40013;BME280;37387;42.672;23.334;2022-07-23T00:48:28;947.0;;;20.5;68.5
40013;BME280;37387;42.672;23.334;2022-07-23T00:51:28;947.0;;;20.3;68.5
40013;BME280;37387;42.672;23.334;2022-07-23T00:52:28;947.0;;;20.2;68.9
40013;BME280;37387;42.672;23.334;2022-07-23T00:53:28;947.0;;;20.0;68.6
40013;BME280;37387;42.672;23.334;2022-07-23T00:54:29;947.0;;;19.9;68.6
40013;BME280;37387;42.672;23.334;2022-07-23T01:04:28;947.0;;;19.8;68.0
40013;BME280;37387;42.672;23.334;2022-07-23T01:28:28;946.9;;;19.9;68.3
40013;BME280;37387;42.672;23.334;2022-07-23T01:29:28;946.9;;;19.8;68.2
40013;BME280;37387;42.672;23.334;2022-07-23T01:31:29;946.9;;;19.9;68.4
40013;BME280;37387;42.672;23.334;2022-07-23T01:32:29;946.9;;;20.0;67.9
40013;BME280;37387;42.672;23.334;2022-07-23T01:33:29;946.9;;;20.1;67.2
40013;BME280;37387;42.672;23.334;2022-07-23T01:35:28;946.9;;;20.2;66.7
40013;BME280;37387;42.672;23.334;2022-07-23T01:40:28;946.8;;;20.3;66.6
40013;BME280;37387;42.672;23.334;2022-07-23T01:44:28;946.8;;;20.4;66.1
40013;BME280;37387;42.672;23.334;2022-07-23T01:46:28;946.8;;;20.2;66.5
40013;BME280;37387;42.672;23.334;2022-07-23T01:48:28;946.9;;;20.1;68.4
40013;BME280;37387;42.672;23.334;2022-07-23T01:50:28;946.9;;;20.0;68.5
40013;BME280;37387;42.672;23.334;2022-07-23T01:53:29;946.9;;;19.9;68.1
40013;BME280;37387;42.672;23.334;2022-07-23T01:57:29;946.9;;;19.8;68.7
40013;BME280;37387;42.672;23.334;2022-07-23T02:00:28;946.9;;;19.7;68.7
40013;BME280;37387;42.672;23.334;2022-07-23T02:06:28;946.9;;;19.6;69.9
40013;BME280;37387;42.672;23.334;2022-07-23T02:07:28;946.9;;;19.7;69.8
40013;BME280;37387;42.672;23.334;2022-07-23T02:11:28;946.9;;;19.8;70.2
40013;BME280;37387;42.672;23.334;2022-07-23T02:16:28;946.9;;;19.6;70.4
40013;BME280;37387;42.672;23.334;2022-07-23T02:17:28;946.9;;;19.5;71.4
40013;BME280;37387;42.672;23.334;2022-07-23T02:18:28;946.9;;;19.4;73.4
40013;BME280;37387;42.672;23.334;2022-07-23T02:19:28;946.9;;;19.3;73.4
40013;BME280;37387;42.672;23.334;2022-07-23T02:23:28;946.9;;;19.1;74.0
40013;BME280;37387;42.672;23.334;2022-07-23T02:30:29;946.9;;;19.0;74.6
40013;BME280;37387;42.672;23.334;2022-07-23T02:35:28;946.9;;;19.2;75.6
40013;BME280;37387;42.672;23.334;2022-07-23T02:36:29;946.9;;;19.3;72.7
40013;BME280;37387;42.672;23.334;2022-07-23T02:37:28;946.9;;;19.2;72.7
40013;BME280;37387;42.672;23.334;2022-07-23T02:38:29;946.9;;;19.1;73.5
40013;BME280;37387;42.672;23.334;2022-07-23T02:40:29;946.9;;;19.0;75.1
40013;BME280;37387;42.672;23.334;2022-07-23T02:41:28;946.9;;;18.8;75.1
40013;BME280;37387;42.672;23.334;2022-07-23T02:43:28;946.9;;;18.9;75.9
40013;BME280;37387;42.672;23.334;2022-07-23T02:44:29;946.9;;;18.8;75.8
40013;BME280;37387;42.672;23.334;2022-07-23T02:47:28;947.0;;;18.9;74.7
40013;BME280;37387;42.672;23.334;2022-07-23T02:50:28;947.0;;;18.8;72.9
40013;BME280;37387;42.672;23.334;2022-07-23T02:51:28;947.0;;;18.7;75.7
40013;BME280;37387;42.672;23.334;2022-07-23T02:54:29;947.0;;;18.6;74.8
40013;BME280;37387;42.672;23.334;2022-07-23T02:56:29;947.0;;;18.7;74.8
40013;BME280;37387;42.672;23.334;2022-07-23T02:57:29;947.0;;;18.6;75.2
40013;BME280;37387;42.672;23.334;2022-07-23T02:58:28;947.0;;;18.5;75.7
40013;BME280;37387;42.672;23.334;2022-07-23T03:04:28;947.2;;;18.6;77.0
40013;BME280;37387;42.672;23.334;2022-07-23T03:05:29;947.1;;;18.7;76.8
40013;BME280;37387;42.672;23.334;2022-07-23T03:11:28;947.2;;;18.8;77.5
40013;BME280;37387;42.672;23.334;2022-07-23T03:18:29;947.3;;;18.9;78.1
40013;BME280;37387;42.672;23.334;2022-07-23T03:22:29;947.3;;;19.0;77.9
40013;BME280;37387;42.672;23.334;2022-07-23T03:27:29;947.3;;;19.1;77.9
40013;BME280;37387;42.672;23.334;2022-07-23T03:29:28;947.4;;;19.2;77.5
40013;BME280;37387;42.672;23.334;2022-07-23T03:32:28;947.4;;;19.3;76.8
40013;BME280;37387;42.672;23.334;2022-07-23T03:33:28;947.4;;;19.4;76.6
40013;BME280;37387;42.672;23.334;2022-07-23T03:34:28;947.4;;;19.5;76.0
40013;BME280;37387;42.672;23.334;2022-07-23T03:35:28;947.4;;;19.6;74.8
40013;BME280;37387;42.672;23.334;2022-07-23T03:36:28;947.4;;;19.7;74.8
40013;BME280;37387;42.672;23.334;2022-07-23T03:37:28;947.4;;;19.8;74.1
40013;BME280;37387;42.672;23.334;2022-07-23T03:38:28;947.4;;;19.9;73.7
40013;BME280;37387;42.672;23.334;2022-07-23T03:39:28;947.4;;;20.0;73.3
40013;BME280;37387;42.672;23.334;2022-07-23T03:40:28;947.4;;;20.2;73.0
40013;BME280;37387;42.672;23.334;2022-07-23T03:41:28;947.4;;;20.4;72.2
40013;BME280;37387;42.672;23.334;2022-07-23T03:42:28;947.4;;;20.5;71.3
40013;BME280;37387;42.672;23.334;2022-07-23T03:43:28;947.4;;;20.7;70.0
40013;BME280;37387;42.672;23.334;2022-07-23T03:44:29;947.5;;;20.9;70.0
40013;BME280;37387;42.672;23.334;2022-07-23T03:45:28;947.5;;;20.8;69.0
40013;BME280;37387;42.672;23.334;2022-07-23T03:47:28;947.5;;;20.5;69.2
40013;BME280;37387;42.672;23.334;2022-07-23T03:49:29;947.5;;;20.7;70.6
40013;BME280;37387;42.672;23.334;2022-07-23T03:50:28;947.5;;;21.0;69.3
40013;BME280;37387;42.672;23.334;2022-07-23T03:51:29;947.5;;;21.4;69.3
40013;BME280;37387;42.672;23.334;2022-07-23T03:52:29;947.5;;;21.7;66.0
40013;BME280;37387;42.672;23.334;2022-07-23T03:53:29;947.6;;;22.1;64.5
40013;BME280;37387;42.672;23.334;2022-07-23T03:54:28;947.6;;;22.5;64.5
40013;BME280;37387;42.672;23.334;2022-07-23T03:55:29;947.6;;;22.8;62.5
40013;BME280;37387;42.672;23.334;2022-07-23T03:56:28;947.6;;;23.1;59.9
40013;BME280;37387;42.672;23.334;2022-07-23T03:57:29;947.6;;;23.3;58.8
40013;BME280;37387;42.672;23.334;2022-07-23T03:58:28;947.6;;;23.4;58.8
40013;BME280;37387;42.672;23.334;2022-07-23T03:59:29;947.6;;;23.6;58.4
40013;BME280;37387;42.672;23.334;2022-07-23T04:00:29;947.6;;;23.7;57.8
40013;BME280;37387;42.672;23.334;2022-07-23T04:01:28;947.6;;;24.0;56.4
40013;BME280;37387;42.672;23.334;2022-07-23T04:02:29;947.6;;;24.1;56.4
40013;BME280;37387;42.672;23.334;2022-07-23T04:03:28;947.6;;;24.2;55.8
40013;BME280;37387;42.672;23.334;2022-07-23T04:05:28;947.6;;;24.3;55.1
40013;BME280;37387;42.672;23.334;2022-07-23T04:06:29;947.6;;;24.0;55.7
40013;BME280;37387;42.672;23.334;2022-07-23T04:07:28;947.6;;;24.1;55.7
40013;BME280;37387;42.672;23.334;2022-07-23T04:08:29;947.6;;;24.2;55.1
40013;BME280;37387;42.672;23.334;2022-07-23T04:09:29;947.6;;;24.0;55.1
40013;BME280;37387;42.672;23.334;2022-07-23T04:10:28;947.6;;;24.2;55.6
40013;BME280;37387;42.672;23.334;2022-07-23T04:12:28;947.6;;;24.6;54.3
40013;BME280;37387;42.672;23.334;2022-07-23T04:13:28;947.6;;;24.8;54.3
40013;BME280;37387;42.672;23.334;2022-07-23T04:14:29;947.6;;;25.4;52.2
40013;BME280;37387;42.672;23.334;2022-07-23T04:15:28;947.7;;;26.0;50.4
40013;BME280;37387;42.672;23.334;2022-07-23T04:16:28;947.7;;;26.3;49.4
40013;BME280;37387;42.672;23.334;2022-07-23T04:17:29;947.7;;;26.6;48.9
40013;BME280;37387;42.672;23.334;2022-07-23T04:18:29;947.7;;;26.7;48.9
40013;BME280;37387;42.672;23.334;2022-07-23T04:19:29;947.8;;;26.9;48.2
40013;BME280;37387;42.672;23.334;2022-07-23T04:20:28;947.7;;;26.5;47.8
40013;BME280;37387;42.672;23.334;2022-07-23T04:22:29;947.7;;;26.9;48.6
40013;BME280;37387;42.672;23.334;2022-07-23T04:23:28;947.8;;;27.4;47.9
40013;BME280;37387;42.672;23.334;2022-07-23T04:24:29;947.8;;;27.5;47.1
40013;BME280;37387;42.672;23.334;2022-07-23T04:25:29;947.8;;;27.9;46.3
40013;BME280;37387;42.672;23.334;2022-07-23T04:26:28;947.8;;;28.2;46.0
40013;BME280;37387;42.672;23.334;2022-07-23T04:27:28;947.8;;;27.8;45.2
40013;BME280;37387;42.672;23.334;2022-07-23T04:28:28;947.8;;;28.1;45.6
40013;BME280;37387;42.672;23.334;2022-07-23T04:29:28;947.8;;;28.8;44.0
40013;BME280;37387;42.672;23.334;2022-07-23T04:30:29;947.9;;;29.3;42.8
40013;BME280;37387;42.672;23.334;2022-07-23T04:31:28;947.9;;;29.4;42.8
40013;BME280;37387;42.672;23.334;2022-07-23T04:32:28;947.9;;;29.2;42.7
40013;BME280;37387;42.672;23.334;2022-07-23T04:33:28;947.9;;;29.7;42.7
40013;BME280;37387;42.672;23.334;2022-07-23T04:34:28;947.9;;;29.8;41.9
40013;BME280;37387;42.672;23.334;2022-07-23T04:35:28;947.9;;;28.8;43.0
40013;BME280;37387;42.672;23.334;2022-07-23T04:36:28;947.9;;;28.5;43.0
40013;BME280;37387;42.672;23.334;2022-07-23T04:37:28;947.8;;;28.7;43.8
40013;BME280;37387;42.672;23.334;2022-07-23T04:38:28;947.8;;;28.2;43.3
40013;BME280;37387;42.672;23.334;2022-07-23T04:39:28;947.8;;;27.6;43.9
40013;BME280;37387;42.672;23.334;2022-07-23T04:40:29;947.8;;;27.1;45.0
40013;BME280;37387;42.672;23.334;2022-07-23T04:41:28;947.8;;;27.0;46.2
40013;BME280;37387;42.672;23.334;2022-07-23T04:42:28;947.8;;;26.8;46.8
40013;BME280;37387;42.672;23.334;2022-07-23T04:43:28;947.8;;;27.4;46.8
40013;BME280;37387;42.672;23.334;2022-07-23T04:44:28;947.8;;;27.3;45.6
40013;BME280;37387;42.672;23.334;2022-07-23T04:45:29;947.8;;;27.4;45.4
40013;BME280;37387;42.672;23.334;2022-07-23T04:47:29;947.8;;;27.6;45.3
40013;BME280;37387;42.672;23.334;2022-07-23T04:48:28;947.8;;;28.2;45.3
40013;BME280;37387;42.672;23.334;2022-07-23T04:49:29;947.9;;;28.7;43.3
40013;BME280;37387;42.672;23.334;2022-07-23T04:51:29;947.9;;;29.0;42.6
40013;BME280;37387;42.672;23.334;2022-07-23T04:53:29;947.9;;;29.5;42.7
40013;BME280;37387;42.672;23.334;2022-07-23T04:54:29;948.0;;;29.7;42.0
40013;BME280;37387;42.672;23.334;2022-07-23T04:55:28;948.1;;;30.0;41.5
40013;BME280;37387;42.672;23.334;2022-07-23T04:56:28;948.1;;;29.6;40.8
40013;BME280;37387;42.672;23.334;2022-07-23T04:57:28;948.0;;;29.1;41.3
40013;BME280;37387;42.672;23.334;2022-07-23T05:01:28;948.0;;;29.4;42.0
40013;BME280;37387;42.672;23.334;2022-07-23T05:02:28;948.0;;;28.8;41.5
40013;BME280;37387;42.672;23.334;2022-07-23T05:05:29;948.0;;;28.5;43.7
40013;BME280;37387;42.672;23.334;2022-07-23T05:06:28;948.0;;;28.9;43.7
40013;BME280;37387;42.672;23.334;2022-07-23T05:07:29;948.0;;;29.0;42.6
40013;BME280;37387;42.672;23.334;2022-07-23T05:08:28;948.0;;;28.7;43.0
40013;BME280;37387;42.672;23.334;2022-07-23T05:09:28;948.0;;;28.6;43.0
40013;BME280;37387;42.672;23.334;2022-07-23T05:10:28;948.0;;;29.5;41.9
40013;BME280;37387;42.672;23.334;2022-07-23T05:11:28;948.0;;;29.8;41.9
40013;BME280;37387;42.672;23.334;2022-07-23T05:12:28;948.0;;;29.9;41.2
40013;BME280;37387;42.672;23.334;2022-07-23T05:13:28;948.0;;;29.8;40.7
40013;BME280;37387;42.672;23.334;2022-07-23T05:14:28;948.0;;;29.7;40.7
40013;BME280;37387;42.672;23.334;2022-07-23T05:15:28;948.0;;;30.1;40.5
40013;BME280;37387;42.672;23.334;2022-07-23T05:16:28;948.0;;;30.5;39.4
40013;BME280;37387;42.672;23.334;2022-07-23T05:17:28;948.0;;;31.4;39.4
40013;BME280;37387;42.672;23.334;2022-07-23T05:18:28;948.1;;;31.1;38.2
40013;BME280;37387;42.672;23.334;2022-07-23T05:19:28;948.1;;;30.4;38.3
40013;BME280;37387;42.672;23.334;2022-07-23T05:20:28;948.1;;;30.2;39.7
40013;BME280;37387;42.672;23.334;2022-07-23T05:21:29;948.1;;;30.3;40.0
40013;BME280;37387;42.672;23.334;2022-07-23T05:22:29;948.1;;;30.8;39.1
40013;BME280;37387;42.672;23.334;2022-07-23T05:24:29;948.1;;;31.1;38.8
40013;BME280;37387;42.672;23.334;2022-07-23T05:25:29;948.1;;;31.0;38.5
40013;BME280;37387;42.672;23.334;2022-07-23T05:26:28;948.1;;;31.9;38.0
40013;BME280;37387;42.672;23.334;2022-07-23T05:27:29;948.2;;;31.6;36.9
40013;BME280;37387;42.672;23.334;2022-07-23T05:28:29;948.2;;;30.2;36.9
40013;BME280;37387;42.672;23.334;2022-07-23T05:29:29;948.1;;;29.6;39.3
40013;BME280;37387;42.672;23.334;2022-07-23T05:30:29;948.0;;;29.7;40.5
40013;BME280;37387;42.672;23.334;2022-07-23T05:31:29;948.0;;;29.8;40.5
40013;BME280;37387;42.672;23.334;2022-07-23T05:32:30;948.0;;;30.5;40.6
40013;BME280;37387;42.672;23.334;2022-07-23T05:33:29;948.1;;;30.4;39.3
40013;BME280;37387;42.672;23.334;2022-07-23T05:34:29;948.1;;;31.4;37.9
40013;BME280;37387;42.672;23.334;2022-07-23T05:35:29;948.1;;;31.6;37.5
40013;BME280;37387;42.672;23.334;2022-07-23T05:36:29;948.1;;;32.1;37.5
40013;BME280;37387;42.672;23.334;2022-07-23T05:37:29;948.1;;;31.2;37.7
40013;BME280;37387;42.672;23.334;2022-07-23T05:38:29;948.1;;;30.7;39.0
40013;BME280;37387;42.672;23.334;2022-07-23T05:39:29;948.1;;;31.1;39.0
40013;BME280;37387;42.672;23.334;2022-07-23T05:40:29;948.1;;;32.1;39.0
40013;BME280;37387;42.672;23.334;2022-07-23T05:41:29;948.2;;;32.3;37.3
40013;BME280;37387;42.672;23.334;2022-07-23T05:43:29;948.2;;;31.2;37.4
40013;BME280;37387;42.672;23.334;2022-07-23T05:44:29;948.1;;;31.0;39.0
40013;BME280;37387;42.672;23.334;2022-07-23T05:45:29;948.1;;;31.2;39.4
40013;BME280;37387;42.672;23.334;2022-07-23T05:46:29;948.1;;;32.2;39.6
40013;BME280;37387;42.672;23.334;2022-07-23T05:47:29;948.1;;;30.2;40.2
40013;BME280;37387;42.672;23.334;2022-07-23T05:48:29;948.1;;;29.1;40.2
40013;BME280;37387;42.672;23.334;2022-07-23T05:49:29;948.0;;;30.4;42.8
40013;BME280;37387;42.672;23.334;2022-07-23T05:50:29;948.1;;;29.9;40.7
40013;BME280;37387;42.672;23.334;2022-07-23T05:51:29;948.0;;;31.4;41.4
40013;BME280;37387;42.672;23.334;2022-07-23T05:52:29;948.1;;;31.8;39.0
40013;BME280;37387;42.672;23.334;2022-07-23T05:53:29;948.1;;;31.2;39.0
40013;BME280;37387;42.672;23.334;2022-07-23T05:54:29;948.1;;;31.1;39.0
40013;BME280;37387;42.672;23.334;2022-07-23T05:55:29;948.1;;;31.6;38.1
40013;BME280;37387;42.672;23.334;2022-07-23T05:56:29;948.2;;;32.6;36.4
40013;BME280;37387;42.672;23.334;2022-07-23T05:57:29;948.1;;;33.0;36.4
40013;BME280;37387;42.672;23.334;2022-07-23T05:58:29;948.1;;;34.2;35.8
40013;BME280;37387;42.672;23.334;2022-07-23T05:59:29;948.2;;;34.3;33.9
40013;BME280;37387;42.672;23.334;2022-07-23T06:00:29;948.2;;;34.4;33.0
40013;BME280;37387;42.672;23.334;2022-07-23T06:01:29;948.2;;;34.9;33.5
40013;BME280;37387;42.672;23.334;2022-07-23T06:02:29;948.2;;;33.9;32.6
40013;BME280;37387;42.672;23.334;2022-07-23T06:03:29;948.2;;;34.1;34.0
40013;BME280;37387;42.672;23.334;2022-07-23T06:04:29;948.2;;;34.2;33.3
40013;BME280;37387;42.672;23.334;2022-07-23T06:05:29;948.2;;;34.6;33.0
40013;BME280;37387;42.672;23.334;2022-07-23T06:06:29;948.2;;;32.7;32.3
40013;BME280;37387;42.672;23.334;2022-07-23T06:07:29;948.1;;;33.1;33.8
40013;BME280;37387;42.672;23.334;2022-07-23T06:08:29;948.1;;;32.9;33.9
40013;BME280;37387;42.672;23.334;2022-07-23T06:09:29;948.1;;;33.1;33.8
40013;BME280;37387;42.672;23.334;2022-07-23T06:10:29;948.1;;;33.5;34.5
40013;BME280;37387;42.672;23.334;2022-07-23T06:11:29;948.0;;;33.7;33.7
40013;BME280;37387;42.672;23.334;2022-07-23T06:12:29;948.1;;;34.2;33.7
40013;BME280;37387;42.672;23.334;2022-07-23T06:13:29;948.1;;;34.7;33.7
40013;BME280;37387;42.672;23.334;2022-07-23T06:14:29;948.1;;;31.6;32.8
40013;BME280;37387;42.672;23.334;2022-07-23T06:15:29;948.0;;;33.1;35.1
40013;BME280;37387;42.672;23.334;2022-07-23T06:16:29;948.0;;;33.4;35.1
40013;BME280;37387;42.672;23.334;2022-07-23T06:17:29;948.0;;;33.1;34.5
40013;BME280;37387;42.672;23.334;2022-07-23T06:18:29;948.0;;;33.7;34.4
40013;BME280;37387;42.672;23.334;2022-07-23T06:19:29;948.0;;;33.9;34.1
40013;BME280;37387;42.672;23.334;2022-07-23T06:21:29;948.1;;;34.8;32.1
40013;BME280;37387;42.672;23.334;2022-07-23T06:22:29;948.1;;;35.0;32.1
40013;BME280;37387;42.672;23.334;2022-07-23T06:23:29;948.0;;;34.3;32.4
40013;BME280;37387;42.672;23.334;2022-07-23T06:24:29;948.1;;;33.9;33.5
40013;BME280;37387;42.672;23.334;2022-07-23T06:25:29;948.1;;;31.2;33.8
40013;BME280;37387;42.672;23.334;2022-07-23T06:26:29;948.0;;;31.5;36.7
40013;BME280;37387;42.672;23.334;2022-07-23T06:28:29;948.0;;;32.3;35.7
40013;BME280;37387;42.672;23.334;2022-07-23T06:29:29;948.0;;;33.2;35.7
40013;BME280;37387;42.672;23.334;2022-07-23T06:30:29;948.1;;;33.4;34.3
40013;BME280;37387;42.672;23.334;2022-07-23T06:31:29;948.0;;;33.3;33.9
40013;BME280;37387;42.672;23.334;2022-07-23T06:32:29;947.9;;;31.7;33.9
40013;BME280;37387;42.672;23.334;2022-07-23T06:33:29;947.9;;;31.9;35.9
40013;BME280;37387;42.672;23.334;2022-07-23T06:34:29;947.9;;;30.7;36.1
40013;BME280;37387;42.672;23.334;2022-07-23T06:35:29;947.9;;;29.6;40.0
40013;BME280;37387;42.672;23.334;2022-07-23T06:36:29;947.8;;;30.7;37.8
40013;BME280;37387;42.672;23.334;2022-07-23T06:37:29;947.9;;;31.3;37.2
40013;BME280;37387;42.672;23.334;2022-07-23T06:38:29;948.0;;;31.8;35.6
40013;BME280;37387;42.672;23.334;2022-07-23T06:39:29;948.0;;;31.6;36.1
40013;BME280;37387;42.672;23.334;2022-07-23T06:40:29;948.0;;;32.0;36.1
40013;BME280;37387;42.672;23.334;2022-07-23T06:41:29;948.0;;;32.7;35.6
40013;BME280;37387;42.672;23.334;2022-07-23T06:43:30;948.0;;;32.0;35.2
40013;BME280;37387;42.672;23.334;2022-07-23T06:45:29;948.0;;;33.0;35.8
40013;BME280;37387;42.672;23.334;2022-07-23T06:46:29;948.0;;;33.3;33.9
40013;BME280;37387;42.672;23.334;2022-07-23T06:48:29;948.0;;;34.1;33.6
40013;BME280;37387;42.672;23.334;2022-07-23T06:49:29;948.1;;;34.0;32.3
40013;BME280;37387;42.672;23.334;2022-07-23T06:50:29;948.0;;;33.7;32.7
40013;BME280;37387;42.672;23.334;2022-07-23T06:51:29;948.0;;;34.5;31.3
40013;BME280;37387;42.672;23.334;2022-07-23T06:52:29;948.0;;;33.8;32.7
40013;BME280;37387;42.672;23.334;2022-07-23T06:53:29;948.0;;;34.0;32.7
40013;BME280;37387;42.672;23.334;2022-07-23T06:54:29;948.0;;;34.7;31.1
40013;BME280;37387;42.672;23.334;2022-07-23T06:55:29;948.0;;;35.5;30.1
40013;BME280;37387;42.672;23.334;2022-07-23T06:57:29;948.0;;;35.3;30.1
40013;BME280;37387;42.672;23.334;2022-07-23T06:58:29;948.0;;;35.9;29.0
40013;BME280;37387;42.672;23.334;2022-07-23T06:59:29;948.1;;;36.3;27.8
40013;BME280;37387;42.672;23.334;2022-07-23T07:00:29;948.1;;;36.5;27.8
40013;BME280;37387;42.672;23.334;2022-07-23T07:01:29;948.1;;;35.9;27.8
40013;BME280;37387;42.672;23.334;2022-07-23T07:02:29;948.0;;;34.9;29.0
40013;BME280;37387;42.672;23.334;2022-07-23T07:03:29;948.0;;;34.8;30.8
40013;BME280;37387;42.672;23.334;2022-07-23T07:04:29;948.0;;;34.9;30.6
40013;BME280;37387;42.672;23.334;2022-07-23T07:05:29;947.9;;;33.7;30.6
40013;BME280;37387;42.672;23.334;2022-07-23T07:06:29;947.9;;;32.6;31.6
40013;BME280;37387;42.672;23.334;2022-07-23T07:07:29;947.9;;;31.6;35.0
40013;BME280;37387;42.672;23.334;2022-07-23T07:08:29;947.9;;;32.3;35.0
40013;BME280;37387;42.672;23.334;2022-07-23T07:09:29;947.8;;;31.2;34.5
40013;BME280;37387;42.672;23.334;2022-07-23T07:10:29;947.9;;;32.8;33.8
40013;BME280;37387;42.672;23.334;2022-07-23T07:11:29;947.9;;;33.7;33.8
40013;BME280;37387;42.672;23.334;2022-07-23T07:12:29;947.9;;;33.8;32.6
40013;BME280;37387;42.672;23.334;2022-07-23T07:13:29;947.9;;;34.3;32.2
40013;BME280;37387;42.672;23.334;2022-07-23T07:14:29;947.9;;;34.0;31.8
40013;BME280;37387;42.672;23.334;2022-07-23T07:15:29;947.8;;;34.4;32.5
40013;BME280;37387;42.672;23.334;2022-07-23T07:16:29;947.9;;;34.2;31.8
40013;BME280;37387;42.672;23.334;2022-07-23T07:17:29;947.8;;;33.6;32.6
40013;BME280;37387;42.672;23.334;2022-07-23T07:18:29;947.8;;;32.7;32.6
40013;BME280;37387;42.672;23.334;2022-07-23T07:19:29;947.8;;;33.7;33.9
40013;BME280;37387;42.672;23.334;2022-07-23T07:20:29;947.8;;;34.2;32.8
40013;BME280;37387;42.672;23.334;2022-07-23T07:21:29;947.8;;;34.7;32.3
40013;BME280;37387;42.672;23.334;2022-07-23T07:22:29;947.8;;;32.7;31.9
40013;BME280;37387;42.672;23.334;2022-07-23T07:23:29;947.8;;;32.6;33.4
40013;BME280;37387;42.672;23.334;2022-07-23T07:24:29;947.8;;;33.3;34.2
40013;BME280;37387;42.672;23.334;2022-07-23T07:25:29;947.8;;;34.0;33.1
40013;BME280;37387;42.672;23.334;2022-07-23T07:26:29;947.9;;;34.9;32.6
40013;BME280;37387;42.672;23.334;2022-07-23T07:27:29;947.9;;;35.6;30.9
40013;BME280;37387;42.672;23.334;2022-07-23T07:28:29;947.9;;;36.6;30.9
40013;BME280;37387;42.672;23.334;2022-07-23T07:29:29;947.9;;;36.1;29.9
40013;BME280;37387;42.672;23.334;2022-07-23T07:30:29;947.9;;;36.7;29.9
40013;BME280;37387;42.672;23.334;2022-07-23T07:31:29;947.9;;;37.5;29.1
40013;BME280;37387;42.672;23.334;2022-07-23T07:32:29;947.8;;;37.9;27.7
40013;BME280;37387;42.672;23.334;2022-07-23T07:33:29;947.8;;;38.3;27.7
40013;BME280;37387;42.672;23.334;2022-07-23T07:34:29;947.8;;;37.2;27.5
40013;BME280;37387;42.672;23.334;2022-07-23T07:35:29;947.8;;;37.1;28.2
40013;BME280;37387;42.672;23.334;2022-07-23T07:36:29;947.8;;;37.8;28.8
40013;BME280;37387;42.672;23.334;2022-07-23T07:37:29;947.8;;;37.4;28.3
40013;BME280;37387;42.672;23.334;2022-07-23T07:38:29;947.8;;;36.6;29.5
40013;BME280;37387;42.672;23.334;2022-07-23T07:39:29;947.7;;;35.8;29.5
40013;BME280;37387;42.672;23.334;2022-07-23T07:40:29;947.7;;;36.7;30.2
40013;BME280;37387;42.672;23.334;2022-07-23T07:41:28;947.8;;;37.5;28.4
40013;BME280;37387;42.672;23.334;2022-07-23T07:42:29;947.8;;;38.0;28.4
40013;BME280;37387;42.672;23.334;2022-07-23T07:43:29;947.8;;;37.5;28.4
40013;BME280;37387;42.672;23.334;2022-07-23T07:44:28;947.8;;;37.0;29.1
40013;BME280;37387;42.672;23.334;2022-07-23T07:45:29;947.7;;;37.1;28.8
40013;BME280;37387;42.672;23.334;2022-07-23T07:46:28;947.7;;;36.5;28.8
40013;BME280;37387;42.672;23.334;2022-07-23T07:47:28;947.7;;;36.2;29.4
40013;BME280;37387;42.672;23.334;2022-07-23T07:48:29;947.8;;;37.6;28.3
40013;BME280;37387;42.672;23.334;2022-07-23T07:49:29;947.8;;;37.7;28.5
40013;BME280;37387;42.672;23.334;2022-07-23T07:50:29;947.8;;;37.3;28.5
40013;BME280;37387;42.672;23.334;2022-07-23T07:51:28;947.8;;;37.5;28.8
40013;BME280;37387;42.672;23.334;2022-07-23T07:52:28;947.8;;;37.8;29.8
40013;BME280;37387;42.672;23.334;2022-07-23T07:53:29;947.7;;;36.9;29.0
40013;BME280;37387;42.672;23.334;2022-07-23T07:54:28;947.7;;;37.5;28.4
40013;BME280;37387;42.672;23.334;2022-07-23T07:55:29;947.7;;;37.2;28.4
40013;BME280;37387;42.672;23.334;2022-07-23T07:57:29;947.7;;;37.0;28.2
40013;BME280;37387;42.672;23.334;2022-07-23T07:58:29;947.7;;;37.1;28.3
40013;BME280;37387;42.672;23.334;2022-07-23T07:59:29;947.7;;;36.3;28.3
40013;BME280;37387;42.672;23.334;2022-07-23T08:01:29;947.6;;;36.7;29.4
40013;BME280;37387;42.672;23.334;2022-07-23T08:02:29;947.6;;;36.1;29.5
40013;BME280;37387;42.672;23.334;2022-07-23T08:03:29;947.6;;;37.3;29.6
40013;BME280;37387;42.672;23.334;2022-07-23T08:04:29;947.7;;;37.0;28.7
40013;BME280;37387;42.672;23.334;2022-07-23T08:05:29;947.7;;;36.7;28.7
40013;BME280;37387;42.672;23.334;2022-07-23T08:06:29;947.6;;;36.3;29.9
40013;BME280;37387;42.672;23.334;2022-07-23T08:07:29;947.6;;;36.1;29.3
40013;BME280;37387;42.672;23.334;2022-07-23T08:08:29;947.6;;;37.1;30.1
40013;BME280;37387;42.672;23.334;2022-07-23T08:09:29;947.6;;;37.8;28.1
40013;BME280;37387;42.672;23.334;2022-07-23T08:10:29;947.6;;;36.8;28.8
40013;BME280;37387;42.672;23.334;2022-07-23T08:11:29;947.6;;;37.5;28.6
40013;BME280;37387;42.672;23.334;2022-07-23T08:12:37;947.6;;;38.0;28.6
40013;BME280;37387;42.672;23.334;2022-07-23T08:13:29;947.4;;;38.8;27.9
40013;BME280;37387;42.672;23.334;2022-07-23T08:14:29;947.6;;;38.6;27.1
40013;BME280;37387;42.672;23.334;2022-07-23T08:15:29;947.6;;;38.2;27.2
40013;BME280;37387;42.672;23.334;2022-07-23T08:16:29;947.5;;;37.9;27.9
40013;BME280;37387;42.672;23.334;2022-07-23T08:17:29;947.5;;;38.1;28.0
40013;BME280;37387;42.672;23.334;2022-07-23T08:18:29;947.6;;;37.9;28.1
40013;BME280;37387;42.672;23.334;2022-07-23T08:19:29;947.6;;;37.6;28.1
40013;BME280;37387;42.672;23.334;2022-07-23T08:21:29;947.5;;;37.2;28.6
40013;BME280;37387;42.672;23.334;2022-07-23T08:23:29;947.5;;;38.3;27.6
40013;BME280;37387;42.672;23.334;2022-07-23T08:26:29;947.5;;;38.2;26.6
40013;BME280;37387;42.672;23.334;2022-07-23T08:27:29;947.5;;;38.1;27.0
40013;BME280;37387;42.672;23.334;2022-07-23T08:28:29;947.5;;;38.5;26.6
40013;BME280;37387;42.672;23.334;2022-07-23T08:29:29;947.6;;;38.6;26.4
40013;BME280;37387;42.672;23.334;2022-07-23T08:30:29;947.5;;;38.7;26.3